Time;durP1;ratioP1;P1;durP2;ratioP2;P2;SDS_P1;SDS_P2;PMS_P1;PMS_P2;Temp;Humidity;BMP_temperature;BMP_pressure;BME280_temperature;BME280_humidity;BME280_pressure;Samples;Min_cycle;Max_cycle;Signal;HPM_P1;HPM_P2
2023/10/01 00:00:08;;;;;;;6.17;2.67;;;;;;;;;;5072871;28;20448;-61
2023/10/01 00:02:34;;;;;;;4.90;3.20;;;;;;;;;;5073092;28;20826;-62
2023/10/01 00:05:03;;;;;;;4.57;3.13;;;;;;;;;;5072660;28;20542;-61
2023/10/01 00:07:30;;;;;;;4.90;2.83;;;;;;;;;;5072882;28;20514;-62
2023/10/01 00:10:01;;;;;;;4.03;2.50;;;;;;;;;;5072740;28;20457;-62
2023/10/01 00:12:29;;;;;;;4.50;2.83;;;;;;;;;;5072714;28;20455;-61
2023/10/01 00:14:56;;;;;;;3.80;3.20;;;;;;;;;;5072615;28;20449;-62
2023/10/01 00:17:24;;;;;;;4.80;3.20;;;;;;;;;;5072583;28;20451;-62
2023/10/01 00:19:51;;;;;;;7.20;2.70;;;;;;;;;;5072836;28;20435;-61
2023/10/01 00:22:18;;;;;;;3.57;2.93;;;;;;;;;;5072706;28;20526;-61
2023/10/01 00:24:45;;;;;;;5.93;3.23;;;;;;;;;;5072627;28;20856;-61
2023/10/01 00:27:12;;;;;;;2.50;2.30;;;;;;;;;;5072460;28;21016;-62
2023/10/01 00:29:39;;;;;;;5.37;2.83;;;;;;;;;;5072520;28;20551;-61
2023/10/01 00:32:06;;;;;;;4.07;2.80;;;;;;;;;;5072262;28;20483;-61
2023/10/01 00:34:34;;;;;;;5.83;2.77;;;;;;;;;;5072835;28;20526;-62
2023/10/01 00:37:03;;;;;;;6.73;3.10;;;;;;;;;;5072323;28;20470;-61
2023/10/01 00:39:30;;;;;;;6.23;3.27;;;;;;;;;;5072624;28;20439;-61
2023/10/01 00:41:57;;;;;;;5.87;2.97;;;;;;;;;;5073546;28;20553;-61
2023/10/01 00:44:24;;;;;;;6.43;3.00;;;;;;;;;;5076350;28;20446;-62
2023/10/01 00:46:51;;;;;;;5.20;2.43;;;;;;;;;;5076270;28;21037;-61
2023/10/01 00:49:18;;;;;;;5.60;3.10;;;;;;;;;;5076479;28;20535;-61
2023/10/01 00:51:48;;;;;;;6.23;3.37;;;;;;;;;;5076338;28;20526;-61
2023/10/01 00:54:17;;;;;;;3.93;2.60;;;;;;;;;;5076347;28;20823;-61
2023/10/01 00:56:44;;;;;;;6.80;2.90;;;;;;;;;;5076197;28;20443;-61
2023/10/01 00:59:12;;;;;;;3.37;2.40;;;;;;;;;;5075999;28;20493;-61
2023/10/01 01:01:41;;;;;;;6.97;2.67;;;;;;;;;;5076287;28;20810;-62
2023/10/01 01:04:17;;;;;;;2.83;2.53;;;;;;;;;;5076175;28;20443;-61
2023/10/01 01:06:47;;;;;;;7.23;2.93;;;;;;;;;;5076355;28;20542;-61
2023/10/01 01:09:16;;;;;;;3.80;2.70;;;;;;;;;;5075970;28;20454;-61
2023/10/01 01:11:43;;;;;;;3.57;2.63;;;;;;;;;;5075725;28;20589;-61
2023/10/01 01:14:11;;;;;;;3.50;2.57;;;;;;;;;;5075982;28;20443;-61
2023/10/01 01:16:40;;;;;;;5.80;3.50;;;;;;;;;;5075964;28;20435;-61
2023/10/01 01:19:09;;;;;;;3.50;2.90;;;;;;;;;;5075937;28;20970;-61
2023/10/01 01:21:39;;;;;;;4.50;2.33;;;;;;;;;;5075750;28;20868;-61
2023/10/01 01:24:08;;;;;;;2.63;2.40;;;;;;;;;;5075626;28;20443;-61
2023/10/01 01:26:37;;;;;;;4.40;2.73;;;;;;;;;;5075780;28;21017;-61
2023/10/01 01:29:16;;;;;;;4.83;3.27;;;;;;;;;;5075763;28;20444;-61
2023/10/01 01:31:45;;;;;;;4.10;2.63;;;;;;;;;;5075331;28;20566;-61
2023/10/01 01:34:13;;;;;;;4.83;3.00;;;;;;;;;;5075470;28;20493;-61
2023/10/01 01:36:42;;;;;;;4.73;2.50;;;;;;;;;;5075168;28;20903;-61
2023/10/01 01:39:26;;;;;;;3.93;2.73;;;;;;;;;;5075660;28;20483;-61
2023/10/01 01:41:54;;;;;;;3.80;3.23;;;;;;;;;;5075600;28;20444;-61
2023/10/01 01:44:22;;;;;;;4.33;2.53;;;;;;;;;;5075678;28;20478;-61
2023/10/01 01:46:50;;;;;;;4.80;2.60;;;;;;;;;;5075522;28;20483;-62
2023/10/01 01:49:19;;;;;;;6.70;2.93;;;;;;;;;;5075287;28;20439;-61
2023/10/01 01:51:59;;;;;;;3.93;2.83;;;;;;;;;;5075153;28;21040;-62
2023/10/01 01:54:28;;;;;;;2.53;2.30;;;;;;;;;;5074076;28;20447;-61
2023/10/01 01:56:56;;;;;;;5.67;3.10;;;;;;;;;;5075150;28;20443;-61
2023/10/01 01:59:25;;;;;;;4.10;2.57;;;;;;;;;;5074991;28;20447;-62
2023/10/01 02:01:52;;;;;;;6.27;3.00;;;;;;;;;;5074978;28;20447;-61
2023/10/01 02:04:22;;;;;;;8.77;3.30;;;;;;;;;;5075135;28;20799;-61
2023/10/01 02:06:50;;;;;;;3.63;3.00;;;;;;;;;;5075296;28;20446;-62
2023/10/01 02:09:19;;;;;;;3.63;2.70;;;;;;;;;;5074956;28;20443;-61
2023/10/01 02:11:48;;;;;;;3.47;2.80;;;;;;;;;;5074733;28;20479;-61
2023/10/01 02:14:30;;;;;;;4.23;3.47;;;;;;;;;;5074614;28;20514;-61
2023/10/01 02:17:02;;;;;;;4.10;2.83;;;;;;;;;;5074737;28;20927;-61
2023/10/01 02:19:29;;;;;;;3.70;3.40;;;;;;;;;;5075005;28;20435;-61
2023/10/01 02:22:02;;;;;;;7.77;3.83;;;;;;;;;;5074713;28;20440;-61
2023/10/01 02:24:45;;;;;;;4.43;3.50;;;;;;;;;;5074607;28;20447;-61
2023/10/01 02:27:14;;;;;;;5.53;2.87;;;;;;;;;;5074779;28;20443;-61
2023/10/01 02:30:11;;;;;;;9.10;3.53;;;;;;;;;;5074593;28;20870;-61
2023/10/01 02:32:49;;;;;;;4.87;2.80;;;;;;;;;;5074220;28;21071;-61
2023/10/01 02:37:58;;;;;;;5.83;2.90;;;;;;;;;;5074120;28;20467;-61
2023/10/01 02:40:25;;;;;;;6.00;3.77;;;;;;;;;;5074273;28;20450;-61
2023/10/01 02:42:56;;;;;;;10.63;3.50;;;;;;;;;;5074197;28;20487;-61
2023/10/01 02:45:32;;;;;;;5.00;2.80;;;;;;;;;;5074093;28;20949;-61
2023/10/01 02:48:16;;;;;;;4.40;3.57;;;;;;;;;;5074272;28;20451;-61
2023/10/01 02:50:45;;;;;;;3.30;2.70;;;;;;;;;;5073992;28;20451;-61
2023/10/01 02:53:13;;;;;;;3.30;2.97;;;;;;;;;;5074055;28;20459;-61
2023/10/01 02:55:45;;;;;;;4.20;2.93;;;;;;;;;;5073862;28;20535;-61
2023/10/01 02:58:27;;;;;;;7.97;3.93;;;;;;;;;;5074120;28;20800;-61
2023/10/01 03:00:53;;;;;;;4.00;2.70;;;;;;;;;;5074008;28;20491;-61
2023/10/01 03:03:31;;;;;;;6.07;3.00;;;;;;;;;;5073886;28;20530;-61
2023/10/01 03:05:58;;;;;;;5.07;3.00;;;;;;;;;;5073447;28;20443;-61
2023/10/01 03:11:11;;;;;;;3.27;2.67;;;;;;;;;;5073630;28;20478;-61
2023/10/01 03:13:40;;;;;;;4.57;3.13;;;;;;;;;;5073718;28;20443;-61
2023/10/01 03:18:54;;;;;;;6.20;3.43;;;;;;;;;;5073527;28;20438;-61
2023/10/01 03:22:12;;;;;;;4.53;2.33;;;;;;;;;;5073360;28;20451;-61
2023/10/01 03:24:20;;;;;;;4.77;2.57;;;;;;;;;;5073251;28;20479;-61
2023/10/01 03:26:46;;;;;;;3.93;2.90;;;;;;;;;;5073383;28;20447;-61
2023/10/01 03:29:19;;;;;;;4.43;2.57;;;;;;;;;;5073262;28;20550;-61
2023/10/01 03:31:46;;;;;;;7.93;3.07;;;;;;;;;;5073443;28;20511;-61
2023/10/01 03:34:28;;;;;;;4.87;2.80;;;;;;;;;;5073615;28;20454;-62
2023/10/01 03:36:58;;;;;;;5.50;2.90;;;;;;;;;;5073194;28;20514;-61
2023/10/01 03:39:25;;;;;;;2.70;2.47;;;;;;;;;;5073360;28;21021;-61
2023/10/01 03:42:10;;;;;;;4.20;2.90;;;;;;;;;;5073132;28;20930;-61
2023/10/01 03:47:23;;;;;;;9.00;2.77;;;;;;;;;;5072778;28;20440;-61
2023/10/01 03:49:54;;;;;;;5.33;2.60;;;;;;;;;;5073047;28;21059;-61
2023/10/01 03:52:21;;;;;;;9.30;3.03;;;;;;;;;;5073187;28;20830;-62
2023/10/01 03:55:00;;;;;;;3.97;2.67;;;;;;;;;;5073142;28;20834;-61
2023/10/01 03:57:29;;;;;;;3.30;2.43;;;;;;;;;;5073128;28;20443;-61
2023/10/01 03:59:57;;;;;;;5.00;3.00;;;;;;;;;;5072971;28;20449;-61
2023/10/01 04:02:46;;;;;;;4.83;3.33;;;;;;;;;;5072908;28;20450;-62
2023/10/01 04:05:22;;;;;;;4.83;3.43;;;;;;;;;;5073068;28;20796;-61
2023/10/01 04:07:49;;;;;;;4.03;2.87;;;;;;;;;;5073011;28;20443;-61
2023/10/01 04:10:21;;;;;;;4.33;2.97;;;;;;;;;;5072925;28;20450;-61
2023/10/01 04:12:54;;;;;;;4.43;3.27;;;;;;;;;;5072785;28;20558;-61
2023/10/01 04:15:29;;;;;;;6.17;3.43;;;;;;;;;;5073072;28;20497;-61
2023/10/01 04:18:19;;;;;;;6.70;3.37;;;;;;;;;;5075857;28;20449;-61
2023/10/01 04:20:49;;;;;;;4.87;3.03;;;;;;;;;;5077056;28;20443;-61
2023/10/01 04:23:23;;;;;;;2.67;2.40;;;;;;;;;;5076875;28;20455;-61
2023/10/01 04:25:51;;;;;;;7.30;3.20;;;;;;;;;;5077005;28;20822;-62
2023/10/01 04:28:18;;;;;;;3.07;2.53;;;;;;;;;;5076929;28;20489;-61
2023/10/01 04:30:51;;;;;;;7.00;3.00;;;;;;;;;;5076845;28;20931;-61
2023/10/01 04:33:18;;;;;;;2.90;2.60;;;;;;;;;;5076681;28;20482;-61
2023/10/01 04:35:51;;;;;;;5.50;2.90;;;;;;;;;;5076577;28;20451;-62
2023/10/01 04:38:18;;;;;;;3.27;2.57;;;;;;;;;;5076507;28;20804;-62
2023/10/01 04:40:48;;;;;;;6.17;3.40;;;;;;;;;;5076799;28;20458;-61
2023/10/01 04:43:16;;;;;;;7.50;3.50;;;;;;;;;;5076570;28;20516;-61
2023/10/01 04:45:44;;;;;;;8.73;3.30;;;;;;;;;;5076469;28;20447;-61
2023/10/01 04:48:16;;;;;;;7.80;2.83;;;;;;;;;;5076390;28;20443;-61
2023/10/01 04:50:43;;;;;;;6.40;4.00;;;;;;;;;;5076554;28;20803;-61
2023/10/01 04:53:13;;;;;;;4.57;2.90;;;;;;;;;;5076341;28;20771;-61
2023/10/01 04:55:41;;;;;;;5.80;3.03;;;;;;;;;;5076197;28;20998;-61
2023/10/01 04:58:12;;;;;;;3.10;2.50;;;;;;;;;;5076257;28;20815;-62
2023/10/01 05:00:39;;;;;;;3.40;3.03;;;;;;;;;;5076186;28;20463;-61
2023/10/01 05:03:06;;;;;;;3.40;3.07;;;;;;;;;;5076407;28;20447;-61
2023/10/01 05:05:37;;;;;;;5.73;3.77;;;;;;;;;;5076021;28;20469;-61
2023/10/01 05:08:05;;;;;;;2.87;2.57;;;;;;;;;;5076263;28;20444;-61
2023/10/01 05:10:50;;;;;;;3.50;3.03;;;;;;;;;;5075949;28;20529;-62
2023/10/01 05:13:19;;;;;;;4.03;3.23;;;;;;;;;;5075803;28;20561;-61
2023/10/01 05:15:49;;;;;;;5.53;3.17;;;;;;;;;;5075795;28;21008;-62
2023/10/01 05:18:16;;;;;;;4.80;3.27;;;;;;;;;;5075962;28;20435;-61
2023/10/01 05:20:48;;;;;;;6.20;3.00;;;;;;;;;;5075873;28;20534;-61
2023/10/01 05:23:15;;;;;;;3.77;2.90;;;;;;;;;;5075856;28;20496;-61
2023/10/01 05:25:45;;;;;;;3.67;3.00;;;;;;;;;;5075671;28;20447;-61
2023/10/01 05:28:31;;;;;;;7.17;3.30;;;;;;;;;;5075313;28;21004;-61
2023/10/01 05:30:58;;;;;;;5.27;2.90;;;;;;;;;;5075829;28;20806;-61
2023/10/01 05:33:27;;;;;;;6.60;3.30;;;;;;;;;;5075631;28;20600;-61
2023/10/01 05:35:57;;;;;;;6.03;3.50;;;;;;;;;;5075558;28;20443;-61
2023/10/01 05:38:26;;;;;;;3.93;3.30;;;;;;;;;;5075242;28;20821;-61
2023/10/01 05:40:54;;;;;;;4.53;2.83;;;;;;;;;;5075602;28;20448;-61
2023/10/01 05:43:27;;;;;;;6.03;3.50;;;;;;;;;;5075883;28;20444;-61
2023/10/01 05:45:54;;;;;;;6.80;3.90;;;;;;;;;;5075473;28;20455;-61
2023/10/01 05:48:23;;;;;;;6.87;3.20;;;;;;;;;;5075316;28;20443;-61
2023/10/01 05:50:52;;;;;;;8.10;4.30;;;;;;;;;;5075230;28;20458;-61
2023/10/01 05:53:20;;;;;;;3.73;2.83;;;;;;;;;;5075093;28;21017;-61
2023/10/01 05:55:47;;;;;;;5.50;3.17;;;;;;;;;;5075104;28;20443;-61
2023/10/01 05:58:14;;;;;;;2.67;2.43;;;;;;;;;;5075185;28;20443;-61
2023/10/01 06:00:45;;;;;;;3.30;2.80;;;;;;;;;;5075073;28;20819;-61
2023/10/01 06:03:13;;;;;;;4.57;3.53;;;;;;;;;;5074967;28;20451;-61
2023/10/01 06:05:46;;;;;;;4.90;2.90;;;;;;;;;;5075163;28;20870;-61
2023/10/01 06:08:17;;;;;;;4.17;3.03;;;;;;;;;;5075091;28;20453;-61
2023/10/01 06:10:59;;;;;;;4.93;3.73;;;;;;;;;;5074995;28;20443;-61
2023/10/01 06:13:28;;;;;;;4.30;2.83;;;;;;;;;;5074791;28;20475;-61
2023/10/01 06:15:56;;;;;;;5.60;2.73;;;;;;;;;;5074795;28;20546;-61
2023/10/01 06:18:22;;;;;;;5.33;3.03;;;;;;;;;;5074856;28;20456;-62
2023/10/01 06:20:50;;;;;;;7.60;3.50;;;;;;;;;;5074581;28;20968;-61
2023/10/01 06:23:17;;;;;;;4.23;3.50;;;;;;;;;;5074649;28;20479;-61
2023/10/01 06:25:51;;;;;;;5.37;2.80;;;;;;;;;;5074564;28;20538;-61
2023/10/01 06:28:20;;;;;;;7.70;2.77;;;;;;;;;;5074439;28;20442;-61
2023/10/01 06:30:48;;;;;;;7.83;3.50;;;;;;;;;;5074633;28;20439;-61
2023/10/01 06:33:25;;;;;;;6.70;3.47;;;;;;;;;;5074414;28;20513;-61
2023/10/01 06:38:39;;;;;;;4.00;3.20;;;;;;;;;;5074417;28;20457;-61
2023/10/01 06:41:13;;;;;;;6.50;2.63;;;;;;;;;;5073804;28;20494;-61
2023/10/01 06:43:48;;;;;;;4.83;3.10;;;;;;;;;;5074614;28;20454;-61
2023/10/01 06:46:16;;;;;;;4.57;3.27;;;;;;;;;;5074201;28;20474;-61
2023/10/01 06:48:43;;;;;;;7.13;3.30;;;;;;;;;;5074574;28;20440;-61
2023/10/01 06:51:12;;;;;;;3.57;2.57;;;;;;;;;;5073903;28;20451;-62
2023/10/01 06:53:45;;;;;;;3.50;3.00;;;;;;;;;;5074039;28;20506;-61
2023/10/01 06:56:14;;;;;;;7.20;3.53;;;;;;;;;;5073943;28;20535;-61
2023/10/01 06:59:12;;;;;;;6.77;3.67;;;;;;;;;;5073824;28;20454;-61
2023/10/01 07:01:34;;;;;;;3.47;2.90;;;;;;;;;;5073601;28;20462;-61
2023/10/01 07:04:01;;;;;;;6.70;3.10;;;;;;;;;;5074053;28;20950;-61
2023/10/01 07:06:28;;;;;;;10.70;3.90;;;;;;;;;;5073830;28;20443;-61
2023/10/01 07:08:55;;;;;;;5.13;3.20;;;;;;;;;;5073648;28;20851;-61
2023/10/01 07:11:23;;;;;;;8.00;3.70;;;;;;;;;;5073644;28;20534;-62
2023/10/01 07:13:53;;;;;;;5.23;3.17;;;;;;;;;;5073463;28;20885;-61
2023/10/01 07:16:35;;;;;;;6.80;3.50;;;;;;;;;;5073828;28;20447;-61
2023/10/01 07:19:04;;;;;;;6.33;3.87;;;;;;;;;;5073675;28;20841;-61
2023/10/01 07:21:31;;;;;;;4.70;3.60;;;;;;;;;;5073627;28;20448;-62
2023/10/01 07:24:00;;;;;;;5.90;3.53;;;;;;;;;;5073627;28;20443;-61
2023/10/01 07:26:28;;;;;;;7.50;3.30;;;;;;;;;;5073445;28;20452;-62
2023/10/01 07:28:56;;;;;;;5.30;3.50;;;;;;;;;;5073258;28;20444;-61
2023/10/01 07:31:24;;;;;;;4.53;2.63;;;;;;;;;;5073428;28;20452;-62
2023/10/01 07:33:52;;;;;;;3.30;3.00;;;;;;;;;;5073461;28;20533;-61
2023/10/01 07:36:19;;;;;;;4.83;3.80;;;;;;;;;;5073466;28;20518;-62
2023/10/01 07:38:52;;;;;;;4.30;3.27;;;;;;;;;;5073148;28;20501;-61
2023/10/01 07:41:20;;;;;;;4.30;3.17;;;;;;;;;;5073159;28;20444;-61
2023/10/01 07:43:49;;;;;;;6.03;3.10;;;;;;;;;;5073116;28;20998;-61
2023/10/01 07:46:18;;;;;;;3.67;3.30;;;;;;;;;;5073279;28;20439;-61
2023/10/01 07:48:48;;;;;;;5.17;3.13;;;;;;;;;;5073334;28;20446;-61
2023/10/01 07:51:27;;;;;;;6.33;3.60;;;;;;;;;;5073028;28;20525;-61
2023/10/01 07:53:54;;;;;;;7.30;3.30;;;;;;;;;;5072877;28;20506;-61
2023/10/01 07:56:22;;;;;;;6.60;3.73;;;;;;;;;;5073057;28;20897;-61
2023/10/01 07:58:56;;;;;;;6.70;3.20;;;;;;;;;;5073057;28;20447;-62
2023/10/01 08:01:37;;;;;;;3.73;3.00;;;;;;;;;;5073002;28;20484;-61
2023/10/01 08:04:06;;;;;;;6.70;3.03;;;;;;;;;;5072932;28;20471;-62
2023/10/01 08:06:41;;;;;;;3.50;2.60;;;;;;;;;;5073022;28;20501;-61
2023/10/01 08:09:11;;;;;;;7.13;2.63;;;;;;;;;;5072883;28;20958;-61
2023/10/01 08:14:20;;;;;;;4.63;2.90;;;;;;;;;;5072594;28;20483;-60
2023/10/01 08:16:48;;;;;;;6.23;3.27;;;;;;;;;;5072676;28;20447;-60
2023/10/01 08:19:16;;;;;;;3.10;2.73;;;;;;;;;;5072961;28;20450;-60
2023/10/01 08:21:48;;;;;;;3.87;2.90;;;;;;;;;;5072866;28;20815;-60
2023/10/01 08:24:18;;;;;;;4.73;2.70;;;;;;;;;;5072881;28;20495;-61
2023/10/01 08:26:49;;;;;;;5.23;3.00;;;;;;;;;;5072681;28;20530;-60
2023/10/01 08:29:16;;;;;;;3.60;2.53;;;;;;;;;;5072893;28;20459;-61
2023/10/01 08:32:07;;;;;;;3.00;2.57;;;;;;;;;;5072836;28;20500;-61
2023/10/01 08:35:01;;;;;;;3.17;2.70;;;;;;;;;;5072694;28;20479;-60
2023/10/01 08:37:22;;;;;;;6.50;3.10;;;;;;;;;;5072371;28;20455;-61
2023/10/01 08:39:53;;;;;;;6.90;2.90;;;;;;;;;;5072824;28;20444;-60
2023/10/01 08:42:19;;;;;;;7.07;3.43;;;;;;;;;;5072516;28;21003;-61
2023/10/01 08:44:49;;;;;;;6.60;4.00;;;;;;;;;;5072537;28;20456;-61
2023/10/01 08:47:28;;;;;;;4.60;2.43;;;;;;;;;;5072637;28;21019;-61
2023/10/01 08:49:57;;;;;;;8.27;2.70;;;;;;;;;;5073276;28;20507;-60
2023/10/01 08:52:25;;;;;;;4.60;3.10;;;;;;;;;;5072533;28;20451;-61
2023/10/01 08:54:53;;;;;;;3.10;2.47;;;;;;;;;;5072385;28;20455;-60
2023/10/01 08:57:36;;;;;;;5.53;2.83;;;;;;;;;;5072403;28;20446;-61
2023/10/01 09:00:14;;;;;;;3.10;2.80;;;;;;;;;;5072352;28;20537;-60
2023/10/01 09:02:41;;;;;;;4.87;2.77;;;;;;;;;;5073194;28;20441;-60
2023/10/01 09:05:11;;;;;;;5.17;3.13;;;;;;;;;;5076229;28;20443;-61
2023/10/01 09:07:41;;;;;;;3.73;3.03;;;;;;;;;;5076137;28;20440;-61
2023/10/01 09:10:09;;;;;;;2.90;2.50;;;;;;;;;;5075987;28;21010;-60
2023/10/01 09:12:45;;;;;;;2.90;2.60;;;;;;;;;;5075770;28;20811;-60
2023/10/01 09:15:22;;;;;;;6.10;3.60;;;;;;;;;;5076143;28;20431;-61
2023/10/01 09:17:57;;;;;;;4.87;2.50;;;;;;;;;;5076148;28;20542;-61
2023/10/01 09:20:39;;;;;;;5.00;2.67;;;;;;;;;;5075866;28;20530;-60
2023/10/01 09:23:06;;;;;;;3.20;2.57;;;;;;;;;;5075789;28;20799;-61
2023/10/01 09:25:34;;;;;;;3.63;2.50;;;;;;;;;;5075548;28;20451;-61
2023/10/01 09:28:04;;;;;;;7.67;3.17;;;;;;;;;;5075768;28;20451;-61
2023/10/01 09:30:35;;;;;;;4.27;3.30;;;;;;;;;;5075853;28;20454;-61
2023/10/01 09:33:05;;;;;;;3.13;2.83;;;;;;;;;;5075583;28;20482;-61
2023/10/01 09:35:49;;;;;;;8.00;3.27;;;;;;;;;;5075606;28;20443;-61
2023/10/01 09:38:18;;;;;;;4.20;3.90;;;;;;;;;;5075219;28;20467;-61
2023/10/01 09:40:46;;;;;;;5.20;3.60;;;;;;;;;;5075447;28;20439;-61
2023/10/01 09:43:24;;;;;;;6.17;3.00;;;;;;;;;;5075481;28;20447;-61
2023/10/01 09:45:52;;;;;;;6.10;3.10;;;;;;;;;;5075322;28;20447;-61
2023/10/01 09:48:33;;;;;;;6.43;3.67;;;;;;;;;;5075146;28;20447;-61
2023/10/01 09:51:11;;;;;;;8.40;3.40;;;;;;;;;;5075394;28;20454;-61
2023/10/01 09:53:47;;;;;;;4.70;3.10;;;;;;;;;;5075258;28;20532;-61
2023/10/01 09:56:15;;;;;;;4.70;2.83;;;;;;;;;;5075175;28;20867;-61
2023/10/01 09:58:46;;;;;;;3.67;2.97;;;;;;;;;;5075084;28;20447;-61
2023/10/01 10:01:17;;;;;;;5.10;3.37;;;;;;;;;;5075324;28;20463;-61
2023/10/01 10:03:45;;;;;;;5.70;3.10;;;;;;;;;;5075301;28;20458;-61
2023/10/01 10:06:24;;;;;;;4.90;3.60;;;;;;;;;;5074986;28;20451;-61
2023/10/01 10:09:02;;;;;;;4.87;3.10;;;;;;;;;;5075132;28;20534;-61
2023/10/01 10:11:30;;;;;;;3.00;2.50;;;;;;;;;;5075071;28;20447;-62
2023/10/01 10:14:00;;;;;;;4.70;2.90;;;;;;;;;;5074158;28;20575;-62
2023/10/01 10:16:30;;;;;;;6.83;3.53;;;;;;;;;;5074643;28;20479;-62
2023/10/01 10:19:05;;;;;;;3.67;3.23;;;;;;;;;;5075220;28;20544;-62
2023/10/01 10:22:04;;;;;;;5.43;3.43;;;;;;;;;;5074460;28;20818;-62
2023/10/01 10:24:34;;;;;;;5.87;3.90;;;;;;;;;;5074758;28;20890;-62
2023/10/01 10:27:04;;;;;;;6.53;3.27;;;;;;;;;;5074637;28;20443;-61
2023/10/01 10:29:46;;;;;;;4.23;3.20;;;;;;;;;;5074522;28;20444;-61
2023/10/01 10:32:13;;;;;;;4.53;3.30;;;;;;;;;;5074281;28;20457;-62
2023/10/01 10:35:03;;;;;;;7.20;3.60;;;;;;;;;;5074428;28;20498;-62
2023/10/01 10:37:53;;;;;;;5.17;3.10;;;;;;;;;;5074073;28;21030;-62
2023/10/01 10:40:22;;;;;;;8.00;3.40;;;;;;;;;;5074363;28;20534;-62
2023/10/01 10:43:08;;;;;;;3.43;3.10;;;;;;;;;;5074093;28;20954;-61
2023/10/01 10:45:42;;;;;;;4.10;3.33;;;;;;;;;;5074249;28;20451;-61
2023/10/01 10:48:09;;;;;;;6.40;3.30;;;;;;;;;;5074453;28;20504;-62
2023/10/01 10:50:48;;;;;;;4.33;2.90;;;;;;;;;;5073863;28;20792;-61
2023/10/01 10:53:17;;;;;;;4.20;3.00;;;;;;;;;;5074055;28;20494;-62
2023/10/01 10:55:57;;;;;;;5.73;3.20;;;;;;;;;;5074238;28;20772;-61
2023/10/01 10:58:25;;;;;;;3.63;2.80;;;;;;;;;;5074035;28;20999;-61
2023/10/01 11:00:52;;;;;;;5.47;2.60;;;;;;;;;;5073951;28;20537;-61
2023/10/01 11:03:40;;;;;;;6.70;3.17;;;;;;;;;;5073705;28;20965;-61
2023/10/01 11:06:15;;;;;;;3.50;2.50;;;;;;;;;;5073926;28;20439;-62
2023/10/01 11:08:50;;;;;;;5.10;2.87;;;;;;;;;;5073844;28;20721;-62
2023/10/01 11:11:18;;;;;;;3.80;2.60;;;;;;;;;;5073706;28;20504;-61
2023/10/01 11:13:45;;;;;;;3.37;2.60;;;;;;;;;;5073467;28;20843;-62
2023/10/01 11:16:14;;;;;;;5.37;2.00;;;;;;;;;;5073563;28;20451;-62
2023/10/01 11:18:44;;;;;;;4.73;1.90;;;;;;;;;;5073679;28;20530;-62
2023/10/01 11:21:19;;;;;;;4.93;3.30;;;;;;;;;;5073568;28;20454;-61
2023/10/01 11:23:49;;;;;;;3.40;2.53;;;;;;;;;;5073502;28;20495;-62
2023/10/01 11:26:27;;;;;;;4.23;2.30;;;;;;;;;;5073067;28;20440;-62
2023/10/01 11:28:57;;;;;;;3.90;2.47;;;;;;;;;;5073513;28;20442;-62
2023/10/01 11:31:24;;;;;;;6.33;2.80;;;;;;;;;;5073227;28;20474;-62
2023/10/01 11:34:03;;;;;;;4.40;2.57;;;;;;;;;;5073247;28;20525;-61
2023/10/01 11:36:36;;;;;;;5.40;2.57;;;;;;;;;;5073397;28;20439;-62
2023/10/01 11:39:06;;;;;;;3.63;2.87;;;;;;;;;;5073454;28;20458;-62
2023/10/01 11:41:42;;;;;;;4.30;3.07;;;;;;;;;;5073596;28;20529;-62
2023/10/01 11:44:16;;;;;;;4.80;2.70;;;;;;;;;;5073521;28;20458;-62
2023/10/01 11:49:38;;;;;;;5.30;2.67;;;;;;;;;;5131383;27;20510;-60
2023/10/01 11:52:21;;;;;;;3.93;2.73;;;;;;;;;;5110629;28;20541;-61
2023/10/01 11:54:52;;;;;;;3.10;2.30;;;;;;;;;;5110797;28;20887;-60
2023/10/01 11:57:22;;;;;;;4.17;2.70;;;;;;;;;;5110508;28;20442;-60
2023/10/01 11:59:54;;;;;;;8.63;3.27;;;;;;;;;;5110726;28;20444;-60
2023/10/01 12:02:24;;;;;;;3.00;2.60;;;;;;;;;;5110735;28;20442;-60
2023/10/01 12:04:57;;;;;;;3.87;3.00;;;;;;;;;;5110671;28;20552;-60
2023/10/01 12:07:27;;;;;;;4.17;3.17;;;;;;;;;;5110565;28;20446;-61
2023/10/01 12:09:54;;;;;;;4.57;2.60;;;;;;;;;;5110391;28;20782;-61
2023/10/01 12:12:25;;;;;;;5.40;3.63;;;;;;;;;;5110409;28;20992;-61
2023/10/01 12:14:55;;;;;;;8.60;3.60;;;;;;;;;;5110137;28;20943;-61
2023/10/01 12:17:24;;;;;;;5.07;3.07;;;;;;;;;;5110388;28;20437;-61
2023/10/01 12:19:53;;;;;;;3.80;2.20;;;;;;;;;;5110293;28;20453;-60
2023/10/01 12:22:23;;;;;;;4.87;2.50;;;;;;;;;;5110113;28;20438;-61
2023/10/01 12:24:56;;;;;;;4.23;3.00;;;;;;;;;;5110399;28;20449;-61
2023/10/01 12:30:30;;;;;;;3.70;2.97;;;;;;;;;;5131463;27;20538;-60
2023/10/01 12:33:00;;;;;;;4.47;3.13;;;;;;;;;;5131041;28;20440;-60
2023/10/01 12:35:30;;;;;;;6.40;3.00;;;;;;;;;;5131340;28;20441;-61
2023/10/01 12:38:10;;;;;;;4.57;2.57;;;;;;;;;;5131314;27;20846;-60
2023/10/01 12:40:37;;;;;;;3.50;2.50;;;;;;;;;;5131021;28;20947;-61
2023/10/01 12:43:03;;;;;;;6.23;3.07;;;;;;;;;;5131606;28;20975;-60
2023/10/01 12:45:33;;;;;;;5.80;2.87;;;;;;;;;;5130894;28;20463;-61
2023/10/01 12:48:08;;;;;;;4.47;3.00;;;;;;;;;;5130992;28;20528;-61
2023/10/01 12:50:35;;;;;;;4.63;2.53;;;;;;;;;;5131076;28;20476;-61
2023/10/01 12:53:19;;;;;;;3.20;2.50;;;;;;;;;;5131013;28;20470;-61
2023/10/01 12:55:52;;;;;;;3.50;3.20;;;;;;;;;;5130791;28;20514;-61
2023/10/01 12:58:22;;;;;;;4.33;3.20;;;;;;;;;;5130904;28;20449;-61
2023/10/01 13:00:50;;;;;;;4.60;2.70;;;;;;;;;;5130690;28;20520;-61
2023/10/01 13:03:19;;;;;;;3.30;3.00;;;;;;;;;;5130805;28;20536;-60
2023/10/01 13:05:49;;;;;;;5.20;3.00;;;;;;;;;;5130611;28;20449;-60
2023/10/01 13:08:27;;;;;;;6.47;3.20;;;;;;;;;;5130472;28;20504;-60
2023/10/01 13:10:54;;;;;;;3.37;3.07;;;;;;;;;;5130476;28;20437;-60
2023/10/01 13:13:26;;;;;;;3.40;3.10;;;;;;;;;;5130616;28;20536;-60
2023/10/01 13:15:57;;;;;;;3.87;2.57;;;;;;;;;;5130585;28;20842;-60
2023/10/01 13:18:29;;;;;;;5.20;2.90;;;;;;;;;;5130488;28;20477;-60
2023/10/01 13:21:06;;;;;;;4.97;3.00;;;;;;;;;;5130181;28;20448;-60
2023/10/01 13:23:41;;;;;;;3.50;2.97;;;;;;;;;;5130568;28;20926;-60
2023/10/01 13:26:14;;;;;;;3.40;3.10;;;;;;;;;;5130434;27;20521;-60
2023/10/01 13:28:46;;;;;;;8.30;3.10;;;;;;;;;;5130059;28;20508;-63
2023/10/01 13:34:06;;;;;;;6.23;3.20;;;;;;;;;;5129697;28;20869;-60
2023/10/01 13:36:47;;;;;;;6.77;2.30;;;;;;;;;;5130196;28;20789;-60
2023/10/01 13:39:25;;;;;;;4.80;2.30;;;;;;;;;;5130043;28;20539;-60
2023/10/01 14:12:09;;;;;;;3.87;2.40;;;;;;;;;;5115522;28;20446;-61
2023/10/01 14:14:36;;;;;;;4.13;2.23;;;;;;;;;;5115750;28;20486;-61
2023/10/01 14:17:13;;;;;;;4.70;2.90;;;;;;;;;;5115489;28;20520;-61
2023/10/01 14:19:42;;;;;;;5.10;3.47;;;;;;;;;;5115660;28;20437;-61
2023/10/01 14:22:18;;;;;;;3.80;2.60;;;;;;;;;;5115616;28;20437;-61
2023/10/01 14:24:45;;;;;;;4.10;2.40;;;;;;;;;;5115536;28;20469;-61
2023/10/01 14:27:24;;;;;;;4.03;2.53;;;;;;;;;;5115460;28;20528;-61
2023/10/01 14:30:00;;;;;;;3.00;2.63;;;;;;;;;;5115150;28;20554;-61
2023/10/01 14:32:34;;;;;;;4.27;2.50;;;;;;;;;;5115663;28;20446;-61
2023/10/01 14:35:14;;;;;;;6.13;2.77;;;;;;;;;;5115324;28;20932;-61
2023/10/01 14:37:41;;;;;;;3.30;3.00;;;;;;;;;;5115227;28;20438;-61
2023/10/01 14:40:13;;;;;;;5.60;2.67;;;;;;;;;;5115033;28;20440;-61
2023/10/01 14:42:40;;;;;;;3.17;2.00;;;;;;;;;;5115083;28;20448;-61
2023/10/01 14:45:08;;;;;;;5.47;2.60;;;;;;;;;;5115185;28;20448;-61
2023/10/01 14:47:35;;;;;;;3.53;2.73;;;;;;;;;;5115060;28;20441;-61
2023/10/01 14:50:04;;;;;;;2.73;2.50;;;;;;;;;;5114922;28;20477;-60
2023/10/01 14:52:32;;;;;;;6.53;2.27;;;;;;;;;;5113802;28;20446;-60
2023/10/01 14:55:02;;;;;;;7.00;3.37;;;;;;;;;;5115038;28;20442;-60
2023/10/01 14:57:29;;;;;;;3.60;3.00;;;;;;;;;;5115210;28;20529;-60
2023/10/01 14:59:57;;;;;;;3.67;2.40;;;;;;;;;;5114711;28;20517;-60
2023/10/01 15:02:23;;;;;;;3.67;2.40;;;;;;;;;;5114727;28;20801;-60
2023/10/01 15:04:50;;;;;;;5.93;3.00;;;;;;;;;;5114554;28;20473;-60
2023/10/01 15:07:21;;;;;;;5.20;3.40;;;;;;;;;;5114771;28;20568;-60
2023/10/01 15:09:49;;;;;;;3.33;2.90;;;;;;;;;;5114441;28;20473;-60
2023/10/01 15:12:26;;;;;;;3.20;2.70;;;;;;;;;;5114640;28;20473;-60
2023/10/01 15:14:53;;;;;;;9.50;2.90;;;;;;;;;;5114528;28;20437;-61
2023/10/01 15:17:20;;;;;;;5.43;3.03;;;;;;;;;;5114310;28;20449;-61
2023/10/01 15:19:49;;;;;;;8.40;3.27;;;;;;;;;;5114329;28;20442;-61
2023/10/01 15:22:17;;;;;;;4.10;2.70;;;;;;;;;;5114624;28;20469;-61
2023/10/01 15:24:46;;;;;;;7.50;3.00;;;;;;;;;;5114258;28;21003;-61
2023/10/01 15:27:13;;;;;;;3.80;3.07;;;;;;;;;;5114360;28;20532;-61
2023/10/01 15:29:44;;;;;;;7.07;4.50;;;;;;;;;;5113936;28;20482;-61
2023/10/01 15:32:15;;;;;;;5.00;3.37;;;;;;;;;;5114079;28;20468;-61
2023/10/01 15:34:42;;;;;;;5.50;3.37;;;;;;;;;;5114157;28;20449;-61
2023/10/01 15:37:11;;;;;;;4.67;3.97;;;;;;;;;;5114110;28;21020;-61
2023/10/01 15:39:39;;;;;;;4.70;3.30;;;;;;;;;;5114037;28;20452;-61
2023/10/01 15:42:12;;;;;;;4.17;3.73;;;;;;;;;;5114010;28;20441;-61
2023/10/01 15:44:46;;;;;;;7.10;3.37;;;;;;;;;;5113799;28;20916;-61
2023/10/01 15:47:25;;;;;;;9.67;4.20;;;;;;;;;;5114092;28;20445;-61
2023/10/01 15:49:55;;;;;;;8.90;4.00;;;;;;;;;;5113801;28;20936;-61
2023/10/01 15:52:22;;;;;;;5.17;3.97;;;;;;;;;;5113869;28;20585;-61
2023/10/01 15:54:49;;;;;;;5.70;3.80;;;;;;;;;;5113730;28;20544;-61
2023/10/01 15:57:18;;;;;;;4.63;4.03;;;;;;;;;;5113653;28;20532;-61
2023/10/01 15:59:45;;;;;;;5.37;3.90;;;;;;;;;;5113932;28;20902;-60
2023/10/01 16:02:18;;;;;;;6.30;3.90;;;;;;;;;;5113747;28;20855;-60